sensor_id;sensor_type;location;lat;lon;timestamp;pressure;altitude;pressure_sealevel;temperature;humidity
11912;BME280;6016;41.928;25.556;2023-04-06T00:00:36;98837.63;;;6.91;57.55
11912;BME280;6016;41.928;25.556;2023-04-06T00:03:03;98830.25;;;6.85;58.69
11912;BME280;6016;41.928;25.556;2023-04-06T00:05:29;98867.66;;;6.87;59.90
11912;BME280;6016;41.928;25.556;2023-04-06T00:07:57;98792.50;;;6.76;58.23
11912;BME280;6016;41.928;25.556;2023-04-06T00:10:24;98816.34;;;7.17;61.35
11912;BME280;6016;41.928;25.556;2023-04-06T00:12:51;98815.81;;;7.23;58.79
11912;BME280;6016;41.928;25.556;2023-04-06T00:15:18;98826.03;;;7.05;59.15
11912;BME280;6016;41.928;25.556;2023-04-06T00:17:47;98825.03;;;7.17;57.97
11912;BME280;6016;41.928;25.556;2023-04-06T00:20:13;98810.56;;;7.23;58.71
11912;BME280;6016;41.928;25.556;2023-04-06T00:22:40;98793.66;;;7.27;63.65
11912;BME280;6016;41.928;25.556;2023-04-06T00:25:08;98698.59;;;6.48;58.51
11912;BME280;6016;41.928;25.556;2023-04-06T00:27:35;98814.16;;;7.22;58.08
11912;BME280;6016;41.928;25.556;2023-04-06T00:30:03;98765.56;;;6.85;57.62
11912;BME280;6016;41.928;25.556;2023-04-06T00:32:30;98720.72;;;6.56;57.02
11912;BME280;6016;41.928;25.556;2023-04-06T00:34:58;98801.69;;;6.70;61.50
11912;BME280;6016;41.928;25.556;2023-04-06T00:37:25;98799.25;;;6.23;58.99
11912;BME280;6016;41.928;25.556;2023-04-06T00:39:52;98789.72;;;6.33;59.94
11912;BME280;6016;41.928;25.556;2023-04-06T00:42:19;98786.81;;;6.59;63.94
11912;BME280;6016;41.928;25.556;2023-04-06T00:44:51;98787.00;;;6.79;60.53
11912;BME280;6016;41.928;25.556;2023-04-06T00:47:19;98752.31;;;6.43;58.62
11912;BME280;6016;41.928;25.556;2023-04-06T00:49:46;98717.34;;;6.32;60.35
11912;BME280;6016;41.928;25.556;2023-04-06T00:52:14;98720.63;;;6.57;58.86
11912;BME280;6016;41.928;25.556;2023-04-06T00:54:41;98683.44;;;6.08;60.48
11912;BME280;6016;41.928;25.556;2023-04-06T00:57:08;98685.09;;;6.09;58.12
11912;BME280;6016;41.928;25.556;2023-04-06T00:59:35;98784.63;;;6.76;57.22
11912;BME280;6016;41.928;25.556;2023-04-06T01:02:02;98700.91;;;6.19;59.59
11912;BME280;6016;41.928;25.556;2023-04-06T01:04:30;98708.66;;;6.21;57.55
11912;BME280;6016;41.928;25.556;2023-04-06T01:06:57;98690.09;;;6.12;61.62
11912;BME280;6016;41.928;25.556;2023-04-06T01:09:27;98702.47;;;6.22;61.38
11912;BME280;6016;41.928;25.556;2023-04-06T01:11:54;98762.88;;;6.64;63.88
11912;BME280;6016;41.928;25.556;2023-04-06T01:14:22;98730.25;;;6.57;60.23
11912;BME280;6016;41.928;25.556;2023-04-06T01:16:50;98644.25;;;6.18;62.10
11912;BME280;6016;41.928;25.556;2023-04-06T01:19:17;98778.81;;;6.72;58.13
11912;BME280;6016;41.928;25.556;2023-04-06T01:21:44;98778.34;;;6.67;58.23
11912;BME280;6016;41.928;25.556;2023-04-06T01:24:12;98764.66;;;6.64;56.61
11912;BME280;6016;41.928;25.556;2023-04-06T01:26:40;98661.53;;;5.98;62.77
11912;BME280;6016;41.928;25.556;2023-04-06T01:29:07;98773.53;;;6.84;61.14
11912;BME280;6016;41.928;25.556;2023-04-06T01:31:34;98736.41;;;6.67;57.90
11912;BME280;6016;41.928;25.556;2023-04-06T01:34:01;98768.81;;;6.66;59.02
11912;BME280;6016;41.928;25.556;2023-04-06T01:36:28;98760.69;;;6.81;59.21
11912;BME280;6016;41.928;25.556;2023-04-06T01:38:55;98773.09;;;6.67;57.68
11912;BME280;6016;41.928;25.556;2023-04-06T01:41:23;98722.41;;;6.45;63.90
11912;BME280;6016;41.928;25.556;2023-04-06T01:43:50;98762.47;;;6.80;62.11
11912;BME280;6016;41.928;25.556;2023-04-06T01:46:20;98763.88;;;7.17;63.03
11912;BME280;6016;41.928;25.556;2023-04-06T01:48:47;98734.88;;;6.65;57.65
11912;BME280;6016;41.928;25.556;2023-04-06T01:51:14;98646.28;;;6.26;58.67
11912;BME280;6016;41.928;25.556;2023-04-06T01:53:41;98762.59;;;7.11;59.62
11912;BME280;6016;41.928;25.556;2023-04-06T01:56:08;98727.72;;;6.99;59.82
11912;BME280;6016;41.928;25.556;2023-04-06T01:58:36;98744.94;;;7.13;56.65
11912;BME280;6016;41.928;25.556;2023-04-06T02:01:03;98751.44;;;6.98;56.46
11912;BME280;6016;41.928;25.556;2023-04-06T02:03:30;98760.34;;;7.07;56.33
11912;BME280;6016;41.928;25.556;2023-04-06T02:05:57;98753.56;;;7.04;56.84
11912;BME280;6016;41.928;25.556;2023-04-06T02:08:24;98732.44;;;6.84;58.16
11912;BME280;6016;41.928;25.556;2023-04-06T02:10:50;98750.56;;;6.76;58.71
11912;BME280;6016;41.928;25.556;2023-04-06T02:13:17;98623.44;;;6.16;57.88
11912;BME280;6016;41.928;25.556;2023-04-06T02:15:46;98749.84;;;6.74;56.70
11912;BME280;6016;41.928;25.556;2023-04-06T02:18:13;98648.75;;;6.27;57.57
11912;BME280;6016;41.928;25.556;2023-04-06T02:20:40;98736.03;;;6.28;56.52
11912;BME280;6016;41.928;25.556;2023-04-06T02:23:07;98807.19;;;6.56;59.98
11912;BME280;6016;41.928;25.556;2023-04-06T02:25:34;98720.34;;;6.60;59.68
11912;BME280;6016;41.928;25.556;2023-04-06T02:28:01;98705.81;;;6.56;57.12
11912;BME280;6016;41.928;25.556;2023-04-06T02:30:28;98735.13;;;6.61;55.52
11912;BME280;6016;41.928;25.556;2023-04-06T02:32:58;98747.75;;;6.56;57.14
11912;BME280;6016;41.928;25.556;2023-04-06T02:35:25;98739.53;;;6.50;57.24
11912;BME280;6016;41.928;25.556;2023-04-06T02:37:52;98746.84;;;6.35;56.32
11912;BME280;6016;41.928;25.556;2023-04-06T02:40:19;98697.13;;;6.12;57.63
11912;BME280;6016;41.928;25.556;2023-04-06T02:42:46;98691.03;;;6.00;60.45
11912;BME280;6016;41.928;25.556;2023-04-06T02:45:13;98634.53;;;5.97;59.07
11912;BME280;6016;41.928;25.556;2023-04-06T02:47:41;98708.53;;;6.33;62.85
11912;BME280;6016;41.928;25.556;2023-04-06T02:50:09;98748.72;;;6.88;59.71
11912;BME280;6016;41.928;25.556;2023-04-06T02:52:36;98724.44;;;6.42;57.14
11912;BME280;6016;41.928;25.556;2023-04-06T02:55:04;98690.66;;;5.93;57.38
11912;BME280;6016;41.928;25.556;2023-04-06T02:57:33;98737.44;;;6.32;56.68
11912;BME280;6016;41.928;25.556;2023-04-06T02:59:59;98677.72;;;5.80;57.20
11912;BME280;6016;41.928;25.556;2023-04-06T03:02:26;98733.16;;;6.31;56.23
11912;BME280;6016;41.928;25.556;2023-04-06T03:04:53;98733.97;;;6.31;56.92
11912;BME280;6016;41.928;25.556;2023-04-06T03:07:22;98733.28;;;6.18;55.52
11912;BME280;6016;41.928;25.556;2023-04-06T03:09:49;98737.44;;;5.63;57.64
11912;BME280;6016;41.928;25.556;2023-04-06T03:12:16;98729.56;;;5.86;58.34
11912;BME280;6016;41.928;25.556;2023-04-06T03:14:43;98711.38;;;5.62;57.13
11912;BME280;6016;41.928;25.556;2023-04-06T03:17:10;98740.28;;;5.95;58.70
11912;BME280;6016;41.928;25.556;2023-04-06T03:19:37;98733.75;;;6.00;58.26
11912;BME280;6016;41.928;25.556;2023-04-06T03:22:04;98638.78;;;4.96;57.52
11912;BME280;6016;41.928;25.556;2023-04-06T03:24:32;98737.91;;;5.80;58.09
11912;BME280;6016;41.928;25.556;2023-04-06T03:26:59;98737.31;;;5.88;58.23
11912;BME280;6016;41.928;25.556;2023-04-06T03:29:26;98740.19;;;5.73;59.02
11912;BME280;6016;41.928;25.556;2023-04-06T03:31:53;98746.81;;;5.77;58.92
11912;BME280;6016;41.928;25.556;2023-04-06T03:34:20;98578.69;;;4.96;57.77
11912;BME280;6016;41.928;25.556;2023-04-06T03:36:47;98746.59;;;5.92;61.12
11912;BME280;6016;41.928;25.556;2023-04-06T03:39:14;98747.69;;;5.78;61.46
11912;BME280;6016;41.928;25.556;2023-04-06T03:41:43;98742.97;;;5.36;58.84
11912;BME280;6016;41.928;25.556;2023-04-06T03:44:11;98691.13;;;5.41;60.23
11912;BME280;6016;41.928;25.556;2023-04-06T03:46:38;98712.81;;;5.77;60.08
11912;BME280;6016;41.928;25.556;2023-04-06T03:49:04;98737.59;;;6.08;59.17
11912;BME280;6016;41.928;25.556;2023-04-06T03:51:31;98734.75;;;6.11;59.70
11912;BME280;6016;41.928;25.556;2023-04-06T03:53:58;98732.56;;;5.82;58.99
11912;BME280;6016;41.928;25.556;2023-04-06T03:56:25;98742.31;;;5.91;59.47
11912;BME280;6016;41.928;25.556;2023-04-06T03:58:53;98707.34;;;5.92;61.35
11912;BME280;6016;41.928;25.556;2023-04-06T04:01:20;98713.53;;;5.91;58.56
11912;BME280;6016;41.928;25.556;2023-04-06T04:03:47;98700.31;;;5.47;58.25
11912;BME280;6016;41.928;25.556;2023-04-06T04:06:14;98734.94;;;5.73;58.89
11912;BME280;6016;41.928;25.556;2023-04-06T04:08:41;98739.22;;;5.86;61.76
11912;BME280;6016;41.928;25.556;2023-04-06T04:11:08;98748.75;;;5.87;58.59
11912;BME280;6016;41.928;25.556;2023-04-06T04:13:35;98743.63;;;5.97;58.59
11912;BME280;6016;41.928;25.556;2023-04-06T04:16:04;98747.34;;;6.05;59.08
11912;BME280;6016;41.928;25.556;2023-04-06T04:18:30;98721.84;;;5.73;61.75
11912;BME280;6016;41.928;25.556;2023-04-06T04:20:57;98719.50;;;6.04;58.44
11912;BME280;6016;41.928;25.556;2023-04-06T04:23:24;98748.72;;;5.75;58.43
11912;BME280;6016;41.928;25.556;2023-04-06T04:25:51;98713.53;;;5.80;58.40
11912;BME280;6016;41.928;25.556;2023-04-06T04:28:18;98703.41;;;5.52;58.07
11912;BME280;6016;41.928;25.556;2023-04-06T04:30:46;98720.03;;;5.40;59.29
11912;BME280;6016;41.928;25.556;2023-04-06T04:33:14;98656.38;;;5.05;60.29
11912;BME280;6016;41.928;25.556;2023-04-06T04:35:41;98695.56;;;5.52;60.00
11912;BME280;6016;41.928;25.556;2023-04-06T04:38:08;98741.63;;;6.12;60.47
11912;BME280;6016;41.928;25.556;2023-04-06T04:40:35;98786.41;;;6.09;62.87
11912;BME280;6016;41.928;25.556;2023-04-06T04:43:02;98739.44;;;6.40;63.01
11912;BME280;6016;41.928;25.556;2023-04-06T04:45:29;98749.34;;;6.36;58.72
11912;BME280;6016;41.928;25.556;2023-04-06T04:47:55;98751.34;;;6.44;61.67
11912;BME280;6016;41.928;25.556;2023-04-06T04:50:24;98649.19;;;5.66;58.07
11912;BME280;6016;41.928;25.556;2023-04-06T04:52:51;98755.53;;;6.12;58.22
11912;BME280;6016;41.928;25.556;2023-04-06T04:55:18;98755.31;;;6.15;57.60
11912;BME280;6016;41.928;25.556;2023-04-06T04:57:44;98713.09;;;6.09;60.88
11912;BME280;6016;41.928;25.556;2023-04-06T05:00:12;98672.16;;;6.08;66.50
11912;BME280;6016;41.928;25.556;2023-04-06T05:02:39;98705.56;;;6.27;57.48
11912;BME280;6016;41.928;25.556;2023-04-06T05:05:07;98701.63;;;6.32;57.07
11912;BME280;6016;41.928;25.556;2023-04-06T05:07:36;98741.81;;;6.87;59.87
11912;BME280;6016;41.928;25.556;2023-04-06T05:10:03;98710.66;;;6.72;63.91
11912;BME280;6016;41.928;25.556;2023-04-06T05:12:30;98740.13;;;6.97;57.36
11912;BME280;6016;41.928;25.556;2023-04-06T05:14:57;98697.47;;;6.63;61.32
11912;BME280;6016;41.928;25.556;2023-04-06T05:17:24;98744.56;;;7.18;60.83
11912;BME280;6016;41.928;25.556;2023-04-06T05:19:51;98742.75;;;7.18;58.81
11912;BME280;6016;41.928;25.556;2023-04-06T05:22:18;98572.09;;;5.81;58.30
11912;BME280;6016;41.928;25.556;2023-04-06T05:24:46;98737.56;;;6.74;59.96
11912;BME280;6016;41.928;25.556;2023-04-06T05:27:13;98703.09;;;6.58;59.38
11912;BME280;6016;41.928;25.556;2023-04-06T05:29:40;98580.88;;;5.91;58.50
11912;BME280;6016;41.928;25.556;2023-04-06T05:32:07;98622.25;;;6.09;58.24
11912;BME280;6016;41.928;25.556;2023-04-06T05:34:34;98739.53;;;6.94;59.19
11912;BME280;6016;41.928;25.556;2023-04-06T05:37:01;98700.97;;;6.84;57.73
11912;BME280;6016;41.928;25.556;2023-04-06T05:39:28;98649.44;;;6.41;62.06
11912;BME280;6016;41.928;25.556;2023-04-06T05:41:57;98746.94;;;6.88;58.69
11912;BME280;6016;41.928;25.556;2023-04-06T05:44:24;98671.53;;;6.59;58.94
11912;BME280;6016;41.928;25.556;2023-04-06T05:46:51;98753.47;;;7.27;62.35
11912;BME280;6016;41.928;25.556;2023-04-06T05:49:17;98713.09;;;6.97;57.38
11912;BME280;6016;41.928;25.556;2023-04-06T05:51:44;98654.03;;;6.81;58.16
11912;BME280;6016;41.928;25.556;2023-04-06T05:54:11;98738.44;;;6.96;57.50
11912;BME280;6016;41.928;25.556;2023-04-06T05:56:38;98679.34;;;6.71;59.52
11912;BME280;6016;41.928;25.556;2023-04-06T05:59:07;98745.63;;;7.15;58.32
11912;BME280;6016;41.928;25.556;2023-04-06T06:01:34;98739.69;;;7.35;59.88
11912;BME280;6016;41.928;25.556;2023-04-06T06:04:01;98746.31;;;6.96;58.34
11912;BME280;6016;41.928;25.556;2023-04-06T06:06:29;98738.03;;;7.12;58.03
11912;BME280;6016;41.928;25.556;2023-04-06T06:08:56;98736.38;;;7.11;58.39
11912;BME280;6016;41.928;25.556;2023-04-06T06:11:24;98716.13;;;7.02;57.02
11912;BME280;6016;41.928;25.556;2023-04-06T06:13:51;98733.00;;;7.42;60.53
11912;BME280;6016;41.928;25.556;2023-04-06T06:16:19;98742.22;;;7.36;57.11
11912;BME280;6016;41.928;25.556;2023-04-06T06:18:46;98739.59;;;7.36;57.78
11912;BME280;6016;41.928;25.556;2023-04-06T06:21:13;98746.00;;;7.11;57.85
11912;BME280;6016;41.928;25.556;2023-04-06T06:23:42;98658.97;;;6.30;58.56
11912;BME280;6016;41.928;25.556;2023-04-06T06:26:09;98751.78;;;6.72;59.08
11912;BME280;6016;41.928;25.556;2023-04-06T06:28:36;98746.34;;;6.85;59.51
11912;BME280;6016;41.928;25.556;2023-04-06T06:31:03;98742.28;;;6.92;59.89
11912;BME280;6016;41.928;25.556;2023-04-06T06:33:31;98748.94;;;6.96;58.46
11912;BME280;6016;41.928;25.556;2023-04-06T06:35:58;98757.31;;;7.23;60.09
11912;BME280;6016;41.928;25.556;2023-04-06T06:38:25;98756.84;;;7.17;58.03
11912;BME280;6016;41.928;25.556;2023-04-06T06:40:52;98755.56;;;7.33;58.04
11912;BME280;6016;41.928;25.556;2023-04-06T06:43:19;98510.75;;;6.07;58.73
11912;BME280;6016;41.928;25.556;2023-04-06T06:45:46;98744.50;;;7.82;57.98
11912;BME280;6016;41.928;25.556;2023-04-06T06:48:13;98743.34;;;7.96;62.75
11912;BME280;6016;41.928;25.556;2023-04-06T06:50:41;98743.53;;;7.83;55.19
11912;BME280;6016;41.928;25.556;2023-04-06T06:53:08;98669.31;;;7.18;56.14
11912;BME280;6016;41.928;25.556;2023-04-06T06:55:36;98701.97;;;7.57;56.86
11912;BME280;6016;41.928;25.556;2023-04-06T06:58:03;98741.03;;;8.02;56.60
11912;BME280;6016;41.928;25.556;2023-04-06T07:00:30;98705.34;;;8.00;57.04
11912;BME280;6016;41.928;25.556;2023-04-06T07:02:57;98753.91;;;8.56;54.46
11912;BME280;6016;41.928;25.556;2023-04-06T07:05:23;98745.22;;;8.76;52.96
11912;BME280;6016;41.928;25.556;2023-04-06T07:07:52;98482.91;;;7.51;54.97
11912;BME280;6016;41.928;25.556;2023-04-06T07:10:19;98757.16;;;9.29;54.09
11912;BME280;6016;41.928;25.556;2023-04-06T07:12:46;98754.66;;;9.85;52.61
11912;BME280;6016;41.928;25.556;2023-04-06T07:15:13;98746.28;;;10.37;52.96
11912;BME280;6016;41.928;25.556;2023-04-06T07:17:40;98715.91;;;10.79;51.96
11912;BME280;6016;41.928;25.556;2023-04-06T07:20:09;98747.03;;;11.83;47.37
11912;BME280;6016;41.928;25.556;2023-04-06T07:22:37;98752.72;;;12.91;49.03
11912;BME280;6016;41.928;25.556;2023-04-06T07:25:06;98718.22;;;13.90;41.63
11912;BME280;6016;41.928;25.556;2023-04-06T07:27:33;98743.97;;;14.21;40.68
11912;BME280;6016;41.928;25.556;2023-04-06T07:30:00;98689.06;;;14.85;38.64
11912;BME280;6016;41.928;25.556;2023-04-06T07:32:27;98738.03;;;15.44;40.70
11912;BME280;6016;41.928;25.556;2023-04-06T07:34:55;98732.69;;;15.68;39.50
11912;BME280;6016;41.928;25.556;2023-04-06T07:37:22;98719.78;;;15.95;39.25
11912;BME280;6016;41.928;25.556;2023-04-06T07:39:49;98707.38;;;15.72;36.13
11912;BME280;6016;41.928;25.556;2023-04-06T07:42:18;98673.59;;;15.42;37.86
11912;BME280;6016;41.928;25.556;2023-04-06T07:44:44;98725.13;;;15.71;36.17
11912;BME280;6016;41.928;25.556;2023-04-06T07:47:11;98720.38;;;15.52;38.69
11912;BME280;6016;41.928;25.556;2023-04-06T07:49:38;98701.50;;;15.92;39.27
11912;BME280;6016;41.928;25.556;2023-04-06T07:52:05;98553.94;;;14.67;37.69
11912;BME280;6016;41.928;25.556;2023-04-06T07:54:32;98701.59;;;15.68;36.46
11912;BME280;6016;41.928;25.556;2023-04-06T07:56:59;98728.78;;;15.94;38.26
11912;BME280;6016;41.928;25.556;2023-04-06T07:59:27;98725.06;;;15.26;37.15
11912;BME280;6016;41.928;25.556;2023-04-06T08:01:54;98719.94;;;14.86;39.18
11912;BME280;6016;41.928;25.556;2023-04-06T08:04:21;98669.25;;;15.11;41.30
11912;BME280;6016;41.928;25.556;2023-04-06T08:06:48;98711.81;;;15.95;39.80
11912;BME280;6016;41.928;25.556;2023-04-06T08:09:15;98395.53;;;14.14;38.56
11912;BME280;6016;41.928;25.556;2023-04-06T08:11:42;98698.75;;;16.00;42.79
11912;BME280;6016;41.928;25.556;2023-04-06T08:14:10;98706.38;;;15.88;39.31
11912;BME280;6016;41.928;25.556;2023-04-06T08:16:39;98595.56;;;14.75;40.51
11912;BME280;6016;41.928;25.556;2023-04-06T08:19:06;98668.34;;;15.19;38.53
11912;BME280;6016;41.928;25.556;2023-04-06T08:21:34;98702.22;;;15.02;39.07
11912;BME280;6016;41.928;25.556;2023-04-06T08:24:01;98641.28;;;14.30;41.73
11912;BME280;6016;41.928;25.556;2023-04-06T08:26:28;98708.00;;;14.51;41.93
11912;BME280;6016;41.928;25.556;2023-04-06T08:28:55;98657.94;;;13.84;45.12
11912;BME280;6016;41.928;25.556;2023-04-06T08:31:22;98683.13;;;13.80;41.38
11912;BME280;6016;41.928;25.556;2023-04-06T08:33:50;98700.75;;;13.48;40.78
11912;BME280;6016;41.928;25.556;2023-04-06T08:36:17;98689.09;;;13.74;43.21
11912;BME280;6016;41.928;25.556;2023-04-06T08:38:48;98686.16;;;14.09;41.37
11912;BME280;6016;41.928;25.556;2023-04-06T08:41:16;98603.03;;;13.93;42.49
11912;BME280;6016;41.928;25.556;2023-04-06T08:43:44;98615.88;;;14.13;41.30
11912;BME280;6016;41.928;25.556;2023-04-06T08:46:13;98692.16;;;14.66;39.94
11912;BME280;6016;41.928;25.556;2023-04-06T08:48:41;98660.13;;;14.67;41.20
11912;BME280;6016;41.928;25.556;2023-04-06T08:51:10;98477.81;;;12.79;46.05
11912;BME280;6016;41.928;25.556;2023-04-06T08:53:37;98624.84;;;14.03;41.80
11912;BME280;6016;41.928;25.556;2023-04-06T08:56:05;98591.50;;;13.86;41.46
11912;BME280;6016;41.928;25.556;2023-04-06T08:58:34;98690.41;;;14.81;40.34
11912;BME280;6016;41.928;25.556;2023-04-06T09:01:02;98633.75;;;14.42;40.44
11912;BME280;6016;41.928;25.556;2023-04-06T09:03:35;98682.00;;;14.69;41.40
11912;BME280;6016;41.928;25.556;2023-04-06T09:06:04;98681.00;;;14.70;41.89
11912;BME280;6016;41.928;25.556;2023-04-06T09:08:32;98674.25;;;14.59;41.86
11912;BME280;6016;41.928;25.556;2023-04-06T09:11:00;98609.03;;;14.42;41.37
11912;BME280;6016;41.928;25.556;2023-04-06T09:13:28;98537.47;;;13.87;40.50
11912;BME280;6016;41.928;25.556;2023-04-06T09:15:59;98570.78;;;14.13;42.09
11912;BME280;6016;41.928;25.556;2023-04-06T09:18:29;98668.63;;;14.62;42.47
11912;BME280;6016;41.928;25.556;2023-04-06T09:20:59;98661.72;;;14.53;40.60
11912;BME280;6016;41.928;25.556;2023-04-06T09:23:26;98590.28;;;14.20;42.72
11912;BME280;6016;41.928;25.556;2023-04-06T09:26:07;98664.00;;;15.03;43.29
11912;BME280;6016;41.928;25.556;2023-04-06T09:28:42;98614.44;;;14.95;44.17
11912;BME280;6016;41.928;25.556;2023-04-06T09:31:10;98630.22;;;15.12;42.81
11912;BME280;6016;41.928;25.556;2023-04-06T09:33:38;98664.16;;;15.25;42.79
11912;BME280;6016;41.928;25.556;2023-04-06T09:36:06;98658.38;;;15.21;40.56
11912;BME280;6016;41.928;25.556;2023-04-06T09:38:36;98662.16;;;15.57;42.24
11912;BME280;6016;41.928;25.556;2023-04-06T09:41:05;98634.72;;;15.71;40.76
11912;BME280;6016;41.928;25.556;2023-04-06T09:43:32;98656.66;;;16.03;40.15
11912;BME280;6016;41.928;25.556;2023-04-06T09:46:00;98655.00;;;16.02;39.15
11912;BME280;6016;41.928;25.556;2023-04-06T09:48:31;98640.34;;;15.31;42.47
11912;BME280;6016;41.928;25.556;2023-04-06T09:51:03;98634.00;;;15.47;43.09
11912;BME280;6016;41.928;25.556;2023-04-06T09:53:33;98639.31;;;15.47;40.65
11912;BME280;6016;41.928;25.556;2023-04-06T09:56:08;98636.75;;;15.99;40.48
11912;BME280;6016;41.928;25.556;2023-04-06T09:58:40;98581.47;;;15.95;40.13
11912;BME280;6016;41.928;25.556;2023-04-06T10:01:12;98638.91;;;16.48;41.36
11912;BME280;6016;41.928;25.556;2023-04-06T10:03:45;98461.63;;;15.29;41.54
11912;BME280;6016;41.928;25.556;2023-04-06T10:06:21;98582.41;;;16.09;38.98
11912;BME280;6016;41.928;25.556;2023-04-06T10:08:49;98632.91;;;15.57;40.92
11912;BME280;6016;41.928;25.556;2023-04-06T10:11:21;98591.56;;;15.09;39.67
11912;BME280;6016;41.928;25.556;2023-04-06T10:13:49;98633.09;;;14.87;41.15
11912;BME280;6016;41.928;25.556;2023-04-06T10:16:17;98599.59;;;14.86;41.52
11912;BME280;6016;41.928;25.556;2023-04-06T10:18:47;98618.41;;;15.14;41.27
11912;BME280;6016;41.928;25.556;2023-04-06T10:21:20;98630.16;;;15.20;40.94
11912;BME280;6016;41.928;25.556;2023-04-06T10:23:51;98627.50;;;15.35;40.54
11912;BME280;6016;41.928;25.556;2023-04-06T10:26:21;98538.06;;;14.82;41.26
11912;BME280;6016;41.928;25.556;2023-04-06T10:28:49;98622.00;;;15.37;44.09
11912;BME280;6016;41.928;25.556;2023-04-06T10:31:24;98621.44;;;15.26;40.91
11912;BME280;6016;41.928;25.556;2023-04-06T10:33:54;98583.59;;;15.24;41.04
11912;BME280;6016;41.928;25.556;2023-04-06T10:36:22;98598.25;;;15.50;40.55
11912;BME280;6016;41.928;25.556;2023-04-06T10:38:54;98565.81;;;14.95;39.48
11912;BME280;6016;41.928;25.556;2023-04-06T10:41:23;98573.44;;;15.13;39.29
11912;BME280;6016;41.928;25.556;2023-04-06T10:43:55;98611.00;;;15.70;44.27
11912;BME280;6016;41.928;25.556;2023-04-06T10:46:25;98609.53;;;15.52;42.16
11912;BME280;6016;41.928;25.556;2023-04-06T10:48:52;98609.78;;;15.72;43.11
11912;BME280;6016;41.928;25.556;2023-04-06T10:51:24;98609.88;;;15.94;42.33
11912;BME280;6016;41.928;25.556;2023-04-06T10:53:54;98611.31;;;16.12;41.74
11912;BME280;6016;41.928;25.556;2023-04-06T10:56:24;98420.97;;;14.92;39.38
11912;BME280;6016;41.928;25.556;2023-04-06T10:58:54;98607.69;;;15.98;41.10
11912;BME280;6016;41.928;25.556;2023-04-06T11:01:23;98601.66;;;15.59;39.02
11912;BME280;6016;41.928;25.556;2023-04-06T11:03:51;98588.38;;;15.44;39.25
11912;BME280;6016;41.928;25.556;2023-04-06T11:06:19;98591.84;;;15.14;39.29
11912;BME280;6016;41.928;25.556;2023-04-06T11:08:47;98532.78;;;14.59;42.66
11912;BME280;6016;41.928;25.556;2023-04-06T11:11:15;98595.13;;;15.01;39.42
11912;BME280;6016;41.928;25.556;2023-04-06T11:13:46;98591.97;;;14.59;40.64
11912;BME280;6016;41.928;25.556;2023-04-06T11:16:14;98572.31;;;14.30;41.70
11912;BME280;6016;41.928;25.556;2023-04-06T11:18:54;98584.00;;;14.59;40.51
11912;BME280;6016;41.928;25.556;2023-04-06T11:21:32;98561.97;;;14.97;44.61
11912;BME280;6016;41.928;25.556;2023-04-06T11:24:07;98572.22;;;15.60;40.81
11912;BME280;6016;41.928;25.556;2023-04-06T11:26:41;98464.72;;;15.11;38.98
11912;BME280;6016;41.928;25.556;2023-04-06T11:29:11;98524.34;;;15.75;38.18
11912;BME280;6016;41.928;25.556;2023-04-06T11:31:40;98541.63;;;16.01;40.54
11912;BME280;6016;41.928;25.556;2023-04-06T11:34:15;98567.53;;;16.58;41.29
11912;BME280;6016;41.928;25.556;2023-04-06T11:36:43;98554.53;;;16.48;37.85
11912;BME280;6016;41.928;25.556;2023-04-06T11:39:11;98566.56;;;16.66;37.41
11912;BME280;6016;41.928;25.556;2023-04-06T11:41:38;98558.47;;;16.52;37.73
11912;BME280;6016;41.928;25.556;2023-04-06T11:44:06;98499.41;;;15.77;38.37
11912;BME280;6016;41.928;25.556;2023-04-06T11:46:34;98560.50;;;16.07;40.79
11912;BME280;6016;41.928;25.556;2023-04-06T11:49:02;98562.84;;;15.80;41.72
11912;BME280;6016;41.928;25.556;2023-04-06T11:51:29;98554.94;;;15.50;40.83
11912;BME280;6016;41.928;25.556;2023-04-06T11:53:56;98554.31;;;15.69;42.99
11912;BME280;6016;41.928;25.556;2023-04-06T11:56:27;98555.69;;;15.80;40.00
11912;BME280;6016;41.928;25.556;2023-04-06T11:58:56;98514.44;;;15.32;42.97
11912;BME280;6016;41.928;25.556;2023-04-06T12:01:24;98516.38;;;15.24;40.40
11912;BME280;6016;41.928;25.556;2023-04-06T12:03:53;98500.06;;;15.12;39.57
11912;BME280;6016;41.928;25.556;2023-04-06T12:06:19;98537.59;;;15.39;41.90
11912;BME280;6016;41.928;25.556;2023-04-06T12:08:46;98545.47;;;15.62;40.96
11912;BME280;6016;41.928;25.556;2023-04-06T12:11:13;98535.00;;;15.60;43.45
11912;BME280;6016;41.928;25.556;2023-04-06T12:13:40;98539.31;;;15.46;41.28
11912;BME280;6016;41.928;25.556;2023-04-06T12:16:07;98541.72;;;15.56;42.22
11912;BME280;6016;41.928;25.556;2023-04-06T12:18:34;98481.53;;;15.33;40.23
11912;BME280;6016;41.928;25.556;2023-04-06T12:21:03;98518.13;;;15.53;43.60
11912;BME280;6016;41.928;25.556;2023-04-06T12:23:31;98547.69;;;15.43;41.05
11912;BME280;6016;41.928;25.556;2023-04-06T12:25:57;98496.13;;;15.08;41.07
11912;BME280;6016;41.928;25.556;2023-04-06T12:28:24;98536.97;;;15.22;41.34
11912;BME280;6016;41.928;25.556;2023-04-06T12:30:52;98532.66;;;14.90;40.40
11912;BME280;6016;41.928;25.556;2023-04-06T12:33:20;98445.53;;;14.71;44.73
11912;BME280;6016;41.928;25.556;2023-04-06T12:35:47;98529.81;;;15.37;41.56
11912;BME280;6016;41.928;25.556;2023-04-06T12:38:16;98497.56;;;15.40;40.71
11912;BME280;6016;41.928;25.556;2023-04-06T12:40:46;98515.06;;;15.71;40.13
11912;BME280;6016;41.928;25.556;2023-04-06T12:43:13;98442.22;;;15.44;39.87
11912;BME280;6016;41.928;25.556;2023-04-06T12:45:40;98513.84;;;16.33;41.23
11912;BME280;6016;41.928;25.556;2023-04-06T12:48:07;97948.31;;;12.96;38.79
11912;BME280;6016;41.928;25.556;2023-04-06T12:50:34;98506.72;;;16.33;39.06
11912;BME280;6016;41.928;25.556;2023-04-06T12:53:01;98509.63;;;16.16;42.83
11912;BME280;6016;41.928;25.556;2023-04-06T12:55:31;98441.88;;;15.54;38.99
11912;BME280;6016;41.928;25.556;2023-04-06T12:58:00;98503.03;;;16.12;38.81
11912;BME280;6016;41.928;25.556;2023-04-06T13:00:27;98432.34;;;16.03;39.37
11912;BME280;6016;41.928;25.556;2023-04-06T13:02:56;98461.78;;;16.23;39.21
11912;BME280;6016;41.928;25.556;2023-04-06T13:05:23;98467.19;;;16.37;39.07
11912;BME280;6016;41.928;25.556;2023-04-06T13:07:49;98328.34;;;15.47;37.81